Swansea — D5FD2 — position and weather

sailwx.info

Track history (hours):
 
Tides and Currents Weather Stations Pressure Air Temp Water Temp Dewpoint Dewpoint Depression Visibility Wind Speed Wind Dir Waves Ship Positions

Swansea

Last reported at 2017-Nov-17 09:57 UTC. Time now 2017-Nov-17 17:50 UTC.
Position N 37°16' W 001°00'.

Length 271 m; draft 13.4 m.

Type: Cargo ship. MMSI: 636016231.

Date/timePositionNaut miles runAvg speedWind from/ knotsBaromVisibWave heightAir tempDewpointWater temp
2017-Nov-17 09:57N 37°16' W 001°00'918.9
2017-Nov-17 09:28N 37°22' W 000°52'918.7
2017-Nov-17 09:00N 37°28' W 000°43'918.7
2017-Nov-17 08:30N 37°34' W 000°34'918.8
2017-Nov-17 08:00N 37°41' W 000°27'1018.8
2017-Nov-17 07:28N 37°50' W 000°20'918.6
2017-Nov-17 07:00N 37°57' W 000°15'1118.8
2017-Nov-17 06:25N 38°07' W 000°08'1318.7
2017-Nov-17 05:43N 38°18' E 000°00'86 3.0
2017-Nov-16 00:32N 39°13' E 001°26'919.9
2017-Nov-16 00:05N 39°12' E 001°37'320.5
2017-Nov-15 23:55N 39°11' E 001°41'2320.0
2017-Nov-15 22:47N 39°06' E 002°10'1719.9
2017-Nov-15 21:56N 39°01' E 002°31'819.9
2017-Nov-15 21:30N 38°59' E 002°41'2019.2
2017-Nov-15 20:29N 38°53' E 003°05'53215.4
2017-Nov-14 09:53N 36°08' E 013°43'716.2
2017-Nov-14 09:25N 36°04' E 013°51'715.9
2017-Nov-14 09:00N 36°00' E 013°57'815.9
2017-Nov-14 08:30N 35°55' E 014°06'815.8
2017-Nov-14 08:00N 35°51' E 014°14'815.8
2017-Nov-14 07:30N 35°46' E 014°21'815.9
2017-Nov-14 07:00N 35°44' E 014°31'5 8.3
2017-Nov-14 06:23N 35°49' E 014°33'0 1.2
2017-Nov-14 05:59N 35°49' E 014°32'0 0.0
2017-Nov-14 01:40N 35°49' E 014°32'0 0.0
2017-Nov-14 01:04N 35°49' E 014°32'45310.2
2017-Nov-12 04:45N 37°07' E 023°47'414.5
2017-Nov-12 04:30N 37°10' E 023°49'714.0
2017-Nov-12 04:00N 37°16' E 023°53'1414.0
2017-Nov-12 03:00N 37°27' E 024°03'2014.0
2017-Nov-12 01:36N 37°43' E 024°18'114.5
2017-Nov-12 01:30N 37°44' E 024°19'814.4
2017-Nov-12 00:56N 37°50' E 024°26'  
Track history (hours):
 
Tides and Currents Weather Stations Pressure Air Temp Water Temp Dewpoint Dewpoint Depression Visibility Wind Speed Wind Dir Waves Ship Positions

Swansea

Last reported at 2017-Nov-17 09:57 UTC. Time now 2017-Nov-17 17:50 UTC.
Position N 37°16' W 001°00'.

Length 271 m; draft 13.4 m.

Type: Cargo ship. MMSI: 636016231.

Date/timePositionNaut miles runAvg speedWind from/ knotsBaromVisibWave heightAir tempDewpointWater temp
2017-Nov-17 09:57N 37°16' W 001°00'918.9
2017-Nov-17 09:28N 37°22' W 000°52'918.7
2017-Nov-17 09:00N 37°28' W 000°43'918.7
2017-Nov-17 08:30N 37°34' W 000°34'918.8
2017-Nov-17 08:00N 37°41' W 000°27'1018.8
2017-Nov-17 07:28N 37°50' W 000°20'918.6
2017-Nov-17 07:00N 37°57' W 000°15'1118.8
2017-Nov-17 06:25N 38°07' W 000°08'1318.7
2017-Nov-17 05:43N 38°18' E 000°00'86 3.0
2017-Nov-16 00:32N 39°13' E 001°26'919.9
2017-Nov-16 00:05N 39°12' E 001°37'320.5
2017-Nov-15 23:55N 39°11' E 001°41'2320.0
2017-Nov-15 22:47N 39°06' E 002°10'1719.9
2017-Nov-15 21:56N 39°01' E 002°31'819.9
2017-Nov-15 21:30N 38°59' E 002°41'2019.2
2017-Nov-15 20:29N 38°53' E 003°05'53215.4
2017-Nov-14 09:53N 36°08' E 013°43'716.2
2017-Nov-14 09:25N 36°04' E 013°51'715.9
2017-Nov-14 09:00N 36°00' E 013°57'815.9
2017-Nov-14 08:30N 35°55' E 014°06'815.8
2017-Nov-14 08:00N 35°51' E 014°14'815.8
2017-Nov-14 07:30N 35°46' E 014°21'815.9
2017-Nov-14 07:00N 35°44' E 014°31'5 8.3
2017-Nov-14 06:23N 35°49' E 014°33'0 1.2
2017-Nov-14 05:59N 35°49' E 014°32'0 0.0
2017-Nov-14 01:40N 35°49' E 014°32'0 0.0
2017-Nov-14 01:04N 35°49' E 014°32'45310.2
2017-Nov-12 04:45N 37°07' E 023°47'414.5
2017-Nov-12 04:30N 37°10' E 023°49'714.0
2017-Nov-12 04:00N 37°16' E 023°53'1414.0
2017-Nov-12 03:00N 37°27' E 024°03'2014.0
2017-Nov-12 01:36N 37°43' E 024°18'114.5
2017-Nov-12 01:30N 37°44' E 024°19'814.4
2017-Nov-12 00:56N 37°50' E 024°26'  

Dump ship's entire track history